Time;durP1;ratioP1;P1;durP2;ratioP2;P2;SDS_P1;SDS_P2;PMS_P1;PMS_P2;Temp;Humidity;BMP_temperature;BMP_pressure;BME280_temperature;BME280_humidity;BME280_pressure;Samples;Min_cycle;Max_cycle;Signal;HPM_P1;HPM_P2
2021/03/24 00:01:08;;;;;;;36.47;22.77;;;9.30;73.30;;;;;;5095752;28;20443;-72
2021/03/24 00:03:34;;;;;;;32.60;21.63;;;9.20;72.80;;;;;;5095670;28;20432;-72
2021/03/24 00:06:02;;;;;;;31.33;20.10;;;9.20;72.60;;;;;;5095465;28;20451;-72
2021/03/24 00:08:28;;;;;;;25.20;20.40;;;9.10;72.80;;;;;;5095507;28;20463;-73
2021/03/24 00:10:54;;;;;;;26.90;19.40;;;9.00;73.10;;;;;;5095264;28;20926;-72
2021/03/24 00:13:21;;;;;;;29.07;19.73;;;9.00;73.00;;;;;;5095460;28;20459;-72
2021/03/24 00:15:47;;;;;;;31.87;20.80;;;8.90;72.80;;;;;;5096064;28;20440;-72
2021/03/24 00:18:14;;;;;;;27.13;21.67;;;8.90;73.50;;;;;;5095446;28;20451;-72
2021/03/24 00:20:43;;;;;;;31.80;21.60;;;8.80;73.80;;;;;;5095340;28;20474;-72
2021/03/24 00:23:11;;;;;;;30.03;22.40;;;8.80;73.90;;;;;;5095270;28;20466;-72
2021/03/24 00:25:38;;;;;;;29.47;23.13;;;8.70;74.20;;;;;;5095396;28;20443;-72
2021/03/24 00:28:05;;;;;;;30.63;21.03;;;8.70;74.10;;;;;;5094851;28;20475;-72
2021/03/24 00:30:38;;;;;;;26.00;21.20;;;8.70;74.50;;;;;;5094893;28;20473;-72
2021/03/24 00:33:05;;;;;;;29.40;22.53;;;8.60;74.30;;;;;;5095113;28;20459;-72
2021/03/24 00:35:31;;;;;;;28.63;21.90;;;8.60;74.70;;;;;;5095178;28;20527;-72
2021/03/24 00:37:58;;;;;;;37.80;25.50;;;8.50;74.70;;;;;;5095101;28;20435;-72
2021/03/24 00:40:29;;;;;;;32.60;23.80;;;8.50;75.10;;;;;;5095574;28;20448;-72
2021/03/24 00:42:55;;;;;;;44.07;27.70;;;8.40;74.90;;;;;;5094816;28;20471;-72
2021/03/24 00:45:21;;;;;;;32.70;22.77;;;8.40;75.60;;;;;;5094965;28;20443;-72
2021/03/24 00:47:48;;;;;;;27.40;20.97;;;8.50;75.70;;;;;;5095442;28;20483;-72
2021/03/24 00:50:18;;;;;;;33.13;23.37;;;8.40;75.80;;;;;;5094609;28;20444;-72
2021/03/24 00:52:44;;;;;;;24.80;19.93;;;8.50;75.80;;;;;;5094874;28;20476;-72
2021/03/24 00:55:12;;;;;;;28.83;21.90;;;8.30;73.80;;;;;;5094734;28;20458;-72
2021/03/24 00:57:39;;;;;;;28.83;21.60;;;8.20;75.20;;;;;;5095632;28;20439;-73
2021/03/24 01:00:08;;;;;;;29.00;21.57;;;8.20;75.70;;;;;;5094794;28;20443;-73
2021/03/24 01:02:34;;;;;;;29.27;21.33;;;8.10;75.70;;;;;;5094531;28;20521;-72
2021/03/24 01:05:02;;;;;;;34.23;23.17;;;8.10;76.00;;;;;;5094580;28;20447;-72
2021/03/24 01:07:28;;;;;;;30.70;22.93;;;8.10;76.00;;;;;;5094333;28;20487;-72
2021/03/24 01:09:54;;;;;;;27.03;22.57;;;8.20;76.20;;;;;;5094414;28;20463;-72
2021/03/24 01:12:20;;;;;;;29.90;22.03;;;8.10;75.80;;;;;;5094383;28;20474;-72
2021/03/24 01:14:47;;;;;;;34.07;23.27;;;8.00;76.00;;;;;;5094444;28;20475;-72
2021/03/24 01:17:14;;;;;;;33.47;24.47;;;8.00;76.50;;;;;;5093985;28;20450;-72
2021/03/24 01:19:40;;;;;;;31.47;20.53;;;8.10;76.40;;;;;;5094306;28;20439;-72
2021/03/24 01:22:06;;;;;;;36.10;23.17;;;8.10;76.30;;;;;;5094180;28;20824;-72
2021/03/24 01:24:32;;;;;;;31.97;22.43;;;8.10;76.30;;;;;;5093846;28;20961;-72
2021/03/24 01:26:59;;;;;;;36.67;23.77;;;8.00;76.40;;;;;;5093674;28;20455;-72
2021/03/24 01:29:25;;;;;;;33.40;24.10;;;8.00;77.10;;;;;;5094026;28;20444;-72
2021/03/24 01:31:52;;;;;;;32.27;24.20;;;8.00;77.30;;;;;;5093737;28;20482;-72
2021/03/24 01:34:18;;;;;;;34.17;24.00;;;8.10;76.70;;;;;;5094074;28;20443;-72
2021/03/24 01:36:44;;;;;;;31.83;23.30;;;8.00;76.00;;;;;;5094012;28;20478;-72
2021/03/24 01:39:10;;;;;;;35.80;23.30;;;7.90;75.90;;;;;;5093959;28;20493;-72
2021/03/24 01:41:37;;;;;;;31.50;22.57;;;7.90;76.50;;;;;;5093925;28;20620;-72
2021/03/24 01:44:03;;;;;;;27.37;22.07;;;7.80;76.70;;;;;;5093909;28;20444;-72
2021/03/24 01:46:41;;;;;;;37.17;24.87;;;7.80;76.80;;;;;;5093863;28;20493;-72
2021/03/24 01:49:14;;;;;;;35.73;23.70;;;7.70;76.90;;;;;;5093474;28;20854;-72
2021/03/24 01:51:43;;;;;;;34.70;24.07;;;7.60;77.30;;;;;;5093713;28;20483;-72
2021/03/24 01:54:13;;;;;;;39.50;23.97;;;7.60;77.40;;;;;;5093725;28;20443;-72
2021/03/24 01:56:42;;;;;;;37.23;23.43;;;7.60;77.70;;;;;;5093454;28;20967;-72
2021/03/24 01:59:09;;;;;;;38.90;24.43;;;7.60;77.90;;;;;;5093626;28;20560;-72
2021/03/24 02:01:35;;;;;;;44.73;24.37;;;7.70;78.70;;;;;;5093492;28;20464;-72
2021/03/24 02:04:02;;;;;;;31.13;22.67;;;7.60;76.80;;;;;;5093241;28;20502;-72
2021/03/24 02:06:37;;;;;;;32.30;21.57;;;7.50;77.10;;;;;;5093300;28;20580;-73
2021/03/24 02:09:11;;;;;;;32.40;23.00;;;7.60;77.90;;;;;;5093529;28;20558;-72
2021/03/24 02:11:45;;;;;;;37.57;24.50;;;7.60;77.90;;;;;;5093394;28;20972;-72
2021/03/24 02:14:16;;;;;;;36.20;24.33;;;7.70;77.30;;;;;;5093287;28;20894;-72
2021/03/24 02:16:47;;;;;;;36.67;22.30;;;7.60;77.30;;;;;;5093568;28;20424;-72
2021/03/24 02:19:30;;;;;;;36.47;23.77;;;7.50;77.50;;;;;;5093524;28;20432;-72
2021/03/24 02:21:59;;;;;;;41.87;22.27;;;7.40;77.80;;;;;;5093522;28;20463;-72
2021/03/24 02:24:39;;;;;;;35.00;23.00;;;7.50;78.20;;;;;;5093551;28;20505;-72
2021/03/24 02:27:11;;;;;;;37.37;22.27;;;7.40;77.70;;;;;;5093396;28;20428;-72
2021/03/24 02:29:42;;;;;;;36.43;23.70;;;7.40;77.60;;;;;;5093461;28;20428;-72
2021/03/24 02:32:13;;;;;;;31.87;22.50;;;7.50;77.50;;;;;;5093340;28;20477;-72
2021/03/24 02:34:42;;;;;;;27.90;22.63;;;7.40;77.30;;;;;;5093438;28;20770;-72
2021/03/24 02:37:11;;;;;;;33.23;21.87;;;7.40;77.70;;;;;;5093416;28;20436;-72
2021/03/24 02:39:41;;;;;;;36.23;22.57;;;7.40;77.70;;;;;;5093308;28;20448;-72
2021/03/24 02:42:12;;;;;;;32.07;21.63;;;7.40;77.70;;;;;;5093261;28;20459;-72
2021/03/24 02:44:40;;;;;;;31.40;20.20;;;7.40;77.80;;;;;;5093343;28;20424;-72
2021/03/24 02:47:08;;;;;;;28.77;21.50;;;7.40;78.30;;;;;;5093209;28;20451;-71
2021/03/24 02:49:36;;;;;;;32.13;23.70;;;7.50;78.70;;;;;;5093266;28;20504;-72
2021/03/24 02:52:03;;;;;;;34.40;23.60;;;7.50;79.10;;;;;;5092899;28;20848;-72
2021/03/24 02:54:32;;;;;;;35.77;22.93;;;7.50;79.30;;;;;;5093302;28;20497;-72
2021/03/24 02:57:00;;;;;;;33.63;23.27;;;7.60;79.00;;;;;;5092733;28;20815;-72
2021/03/24 02:59:27;;;;;;;36.20;22.50;;;7.60;78.20;;;;;;5093009;28;20440;-72
2021/03/24 03:01:59;;;;;;;33.10;24.40;;;7.60;78.10;;;;;;5092623;28;20456;-72
2021/03/24 03:04:29;;;;;;;34.23;24.27;;;7.60;78.20;;;;;;5093062;28;20440;-72
2021/03/24 03:06:59;;;;;;;34.03;23.40;;;7.60;78.50;;;;;;5092942;28;20459;-72
2021/03/24 03:09:33;;;;;;;30.97;21.50;;;7.50;78.40;;;;;;5093033;28;20416;-72
2021/03/24 03:12:04;;;;;;;30.43;23.30;;;7.50;78.90;;;;;;5092932;28;20463;-72
2021/03/24 03:14:39;;;;;;;34.97;22.33;;;7.50;79.20;;;;;;5093961;28;20950;-72
2021/03/24 03:17:11;;;;;;;34.17;22.30;;;7.50;79.50;;;;;;5096596;28;20473;-72
2021/03/24 03:19:42;;;;;;;33.30;20.50;;;7.60;79.50;;;;;;5096249;28;20420;-72
2021/03/24 03:22:12;;;;;;;33.93;21.70;;;7.60;78.80;;;;;;5096476;28;20460;-72
2021/03/24 03:24:44;;;;;;;28.70;21.70;;;7.60;78.70;;;;;;5096498;28;20424;-72
2021/03/24 03:27:13;;;;;;;29.03;21.13;;;7.60;78.70;;;;;;5096178;28;20902;-72
2021/03/24 03:29:42;;;;;;;31.87;21.87;;;7.60;78.80;;;;;;5096396;28;20463;-72
2021/03/24 03:32:10;;;;;;;38.67;21.60;;;7.50;78.10;;;;;;5095987;28;21058;-72
2021/03/24 03:34:39;;;;;;;31.83;23.23;;;7.50;78.50;;;;;;5096282;28;20444;-72
2021/03/24 03:37:07;;;;;;;30.87;21.10;;;7.50;78.60;;;;;;5096873;28;20455;-72
2021/03/24 03:39:34;;;;;;;25.73;19.20;;;7.50;78.80;;;;;;5096224;28;20448;-72
2021/03/24 03:42:03;;;;;;;29.83;20.63;;;7.50;78.80;;;;;;5095626;28;21009;-72
2021/03/24 03:44:31;;;;;;;29.80;19.57;;;7.50;78.60;;;;;;5095856;28;20984;-72
2021/03/24 03:47:05;;;;;;;30.23;21.50;;;7.50;78.70;;;;;;5095769;28;20439;-71
2021/03/24 03:49:32;;;;;;;31.10;21.43;;;7.50;78.90;;;;;;5096023;28;20445;-72
2021/03/24 03:52:29;;;;;;;29.23;21.77;;;7.50;79.30;;;;;;5095875;28;20462;-72
2021/03/24 03:55:07;;;;;;;28.83;21.10;;;7.50;79.50;;;;;;5095735;28;20945;-72
2021/03/24 03:57:39;;;;;;;26.30;20.70;;;7.50;79.50;;;;;;5095820;28;20420;-72
2021/03/24 04:00:12;;;;;;;29.23;21.50;;;7.60;79.40;;;;;;5095855;28;20434;-72
2021/03/24 04:02:44;;;;;;;29.87;22.80;;;7.60;79.00;;;;;;5095709;28;20814;-72
2021/03/24 04:05:15;;;;;;;31.60;22.27;;;7.60;78.70;;;;;;5095790;28;20435;-72
2021/03/24 04:07:45;;;;;;;30.20;20.50;;;7.60;78.40;;;;;;5095236;28;20483;-72
2021/03/24 04:10:12;;;;;;;30.50;20.83;;;7.60;78.30;;;;;;5095382;28;20435;-72
2021/03/24 04:12:40;;;;;;;30.53;21.20;;;7.50;78.00;;;;;;5095432;28;20531;-72
2021/03/24 04:15:11;;;;;;;29.63;21.40;;;7.50;78.10;;;;;;5095125;28;20788;-73
2021/03/24 04:17:44;;;;;;;27.20;20.77;;;7.40;78.00;;;;;;5095114;28;20436;-72
2021/03/24 04:20:13;;;;;;;37.37;21.90;;;7.20;78.20;;;;;;5095132;28;20428;-72
2021/03/24 04:22:40;;;;;;;28.17;19.70;;;7.20;78.60;;;;;;5095259;28;20476;-72
2021/03/24 04:25:10;;;;;;;26.57;19.97;;;7.20;78.90;;;;;;5096091;28;20432;-72
2021/03/24 04:27:38;;;;;;;29.37;20.33;;;7.20;79.10;;;;;;5094809;28;20479;-72
2021/03/24 04:30:08;;;;;;;35.17;21.43;;;7.20;79.70;;;;;;5095146;28;20497;-72
2021/03/24 04:32:35;;;;;;;34.10;20.80;;;7.20;80.00;;;;;;5095093;28;20471;-72
2021/03/24 04:35:05;;;;;;;33.27;21.17;;;7.20;79.70;;;;;;5095065;28;20447;-72
2021/03/24 04:37:35;;;;;;;28.80;20.40;;;7.10;79.40;;;;;;5094841;28;20456;-72
2021/03/24 04:40:04;;;;;;;34.33;24.30;;;7.00;79.30;;;;;;5095050;28;20432;-72
2021/03/24 04:42:35;;;;;;;32.20;20.50;;;7.00;79.50;;;;;;5094510;28;21034;-72
2021/03/24 04:45:12;;;;;;;27.30;19.83;;;7.10;79.50;;;;;;5094899;28;20428;-72
2021/03/24 04:47:39;;;;;;;33.13;21.17;;;7.10;79.50;;;;;;5094520;28;20996;-72
2021/03/24 04:50:16;;;;;;;28.77;20.33;;;7.10;79.70;;;;;;5094867;28;20451;-72
2021/03/24 04:52:43;;;;;;;26.90;19.70;;;7.10;79.90;;;;;;5094451;28;20876;-72
2021/03/24 04:55:15;;;;;;;31.23;20.00;;;7.10;79.90;;;;;;5094700;28;20451;-72
2021/03/24 04:57:43;;;;;;;30.90;20.63;;;7.10;79.90;;;;;;5094719;28;20459;-71
2021/03/24 05:00:25;;;;;;;29.37;19.53;;;7.10;80.00;;;;;;5094641;28;20444;-72
2021/03/24 05:02:54;;;;;;;35.47;21.97;;;7.10;80.10;;;;;;5094503;28;20470;-72
2021/03/24 05:05:26;;;;;;;31.80;21.90;;;7.10;79.80;;;;;;5094527;28;20444;-72
2021/03/24 05:07:57;;;;;;;30.10;21.43;;;6.90;79.40;;;;;;5094052;28;20495;-72
2021/03/24 05:10:28;;;;;;;29.73;18.50;;;6.80;79.80;;;;;;5094466;28;20485;-72
2021/03/24 05:13:03;;;;;;;31.20;20.17;;;6.80;80.50;;;;;;5094312;28;20455;-71
2021/03/24 05:15:33;;;;;;;31.93;21.83;;;6.70;80.80;;;;;;5094372;28;20432;-71
2021/03/24 05:18:02;;;;;;;24.83;18.87;;;6.70;80.80;;;;;;5094393;28;20424;-72
2021/03/24 05:20:36;;;;;;;29.83;21.27;;;6.70;81.20;;;;;;5094301;28;20451;-71
2021/03/24 05:23:07;;;;;;;29.83;21.30;;;6.70;81.20;;;;;;5093884;28;21000;-72
2021/03/24 05:25:38;;;;;;;26.70;19.87;;;6.70;81.50;;;;;;5094335;28;20416;-72
2021/03/24 05:28:09;;;;;;;29.30;21.20;;;6.80;81.60;;;;;;5094171;28;20451;-72
2021/03/24 05:30:38;;;;;;;27.17;18.67;;;6.80;82.00;;;;;;5094162;28;20428;-72
2021/03/24 05:33:10;;;;;;;30.17;20.20;;;6.80;81.10;;;;;;5093979;28;20464;-72
2021/03/24 05:35:47;;;;;;;24.40;17.57;;;6.80;81.30;;;;;;5094042;28;20443;-72
2021/03/24 05:38:18;;;;;;;30.10;20.13;;;6.70;81.40;;;;;;5093720;28;20424;-72
2021/03/24 05:40:56;;;;;;;29.90;18.70;;;6.80;81.50;;;;;;5093981;28;20481;-72
2021/03/24 05:43:42;;;;;;;27.40;20.20;;;6.80;81.60;;;;;;5093866;28;20482;-72
2021/03/24 05:46:23;;;;;;;29.37;20.07;;;6.90;81.30;;;;;;5094582;28;20463;-72
2021/03/24 05:49:09;;;;;;;24.60;18.53;;;6.90;80.80;;;;;;5093898;28;20459;-72
2021/03/24 05:51:55;;;;;;;30.57;20.50;;;6.90;80.50;;;;;;5093404;28;21003;-71
2021/03/24 05:54:32;;;;;;;33.23;18.90;;;7.00;80.50;;;;;;5093425;28;20807;-72
2021/03/24 05:57:24;;;;;;;26.23;18.73;;;6.90;80.20;;;;;;5093668;28;20430;-72
2021/03/24 06:00:00;;;;;;;28.10;19.50;;;6.90;80.30;;;;;;5093707;28;20435;-72
2021/03/24 06:02:33;;;;;;;26.60;17.93;;;7.00;80.40;;;;;;5093510;28;20512;-72
2021/03/24 06:05:02;;;;;;;25.20;17.40;;;7.00;80.50;;;;;;5093607;28;20423;-72
2021/03/24 06:07:59;;;;;;;24.60;19.00;;;7.00;80.30;;;;;;5093108;28;20977;-73
2021/03/24 06:10:41;;;;;;;26.50;18.53;;;7.10;80.30;;;;;;5093510;28;20424;-72
2021/03/24 06:13:46;;;;;;;25.17;18.80;;;7.10;80.30;;;;;;5093411;28;20463;-72
2021/03/24 06:16:44;;;;;;;27.80;18.60;;;7.10;79.80;;;;;;5093206;28;20424;-72
2021/03/24 06:19:23;;;;;;;26.20;18.80;;;7.10;79.70;;;;;;5093435;28;20442;-72
2021/03/24 06:21:57;;;;;;;28.00;18.47;;;7.20;79.80;;;;;;5093091;28;20811;-72
2021/03/24 06:24:48;;;;;;;25.90;19.00;;;7.20;79.90;;;;;;5093471;28;20474;-71
2021/03/24 06:27:29;;;;;;;29.23;19.43;;;7.20;79.70;;;;;;5093043;28;20918;-71
2021/03/24 06:30:04;;;;;;;25.67;17.57;;;7.20;79.70;;;;;;5093346;28;20466;-71
2021/03/24 06:33:13;;;;;;;25.77;17.30;;;7.30;79.80;;;;;;5092971;28;20977;-71
2021/03/24 06:36:15;;;;;;;26.07;17.40;;;7.30;79.70;;;;;;5085576;28;20458;-71
2021/03/24 06:38:51;;;;;;;26.13;18.30;;;7.30;79.70;;;;;;5093142;28;20443;-71
2021/03/24 06:41:39;;;;;;;27.00;18.00;;;7.30;79.70;;;;;;5092781;28;20454;-71
2021/03/24 06:44:22;;;;;;;28.67;20.27;;;7.30;79.40;;;;;;5093264;28;20483;-71
2021/03/24 06:46:53;;;;;;;27.90;19.37;;;7.40;79.70;;;;;;5093254;28;20443;-72
2021/03/24 06:49:32;;;;;;;32.47;21.07;;;7.40;79.50;;;;;;5094205;28;20464;-71
2021/03/24 06:52:44;;;;;;;34.53;23.00;;;7.50;79.30;;;;;;5097084;28;20819;-71
2021/03/24 06:55:45;;;;;;;31.70;18.30;;;7.50;79.10;;;;;;5096719;28;20953;-72
2021/03/24 06:58:31;;;;;;;26.90;18.00;;;7.50;79.20;;;;;;5097385;28;20408;-71
2021/03/24 07:01:32;;;;;;;26.97;20.50;;;7.60;79.30;;;;;;5096697;28;20795;-71
2021/03/24 07:04:30;;;;;;;32.10;19.60;;;7.70;79.30;;;;;;5096914;28;20434;-71
2021/03/24 07:07:09;;;;;;;28.33;20.47;;;7.70;79.00;;;;;;5092130;28;20567;-74
2021/03/24 07:09:44;;;;;;;29.27;19.27;;;7.80;79.10;;;;;;5096791;28;20517;-72
2021/03/24 07:12:22;;;;;;;28.37;20.73;;;7.90;79.20;;;;;;5096784;28;20466;-71
2021/03/24 07:15:14;;;;;;;27.40;19.57;;;7.90;79.30;;;;;;5096921;28;20496;-71
2021/03/24 07:18:11;;;;;;;36.93;22.13;;;7.90;79.30;;;;;;5096408;28;20940;-71
2021/03/24 07:21:12;;;;;;;32.50;20.20;;;8.00;79.50;;;;;;5096623;28;20451;-71
2021/03/24 07:24:02;;;;;;;28.17;19.53;;;8.00;79.50;;;;;;5093684;28;20451;-71
2021/03/24 07:26:52;;;;;;;31.87;21.90;;;8.10;79.50;;;;;;5096474;28;20424;-71
2021/03/24 07:29:37;;;;;;;30.47;22.00;;;8.20;79.30;;;;;;5096825;28;20490;-71
2021/03/24 07:32:10;;;;;;;25.03;20.27;;;8.20;79.40;;;;;;5096277;28;20470;-71
2021/03/24 07:35:08;;;;;;;32.30;20.73;;;8.20;79.60;;;;;;5096042;28;20905;-71
2021/03/24 07:37:56;;;;;;;29.13;20.23;;;8.30;79.40;;;;;;5090786;28;20460;-71
2021/03/24 07:40:48;;;;;;;32.77;21.30;;;8.30;79.70;;;;;;5096258;28;20432;-71
2021/03/24 07:43:40;;;;;;;28.67;19.57;;;8.40;79.30;;;;;;5096082;28;20464;-71
2021/03/24 07:46:30;;;;;;;24.43;19.40;;;8.60;78.30;;;;;;5095810;28;20437;-71
2021/03/24 07:49:15;;;;;;;34.37;22.17;;;8.80;77.50;;;;;;5095945;28;20466;-71
2021/03/24 07:52:03;;;;;;;32.10;19.40;;;8.90;77.80;;;;;;5095926;28;20523;-71
2021/03/24 07:54:34;;;;;;;30.23;19.60;;;9.10;77.50;;;;;;5095948;28;20439;-72
2021/03/24 07:57:10;;;;;;;32.10;21.37;;;9.20;77.10;;;;;;5095876;28;20488;-71
2021/03/24 07:59:44;;;;;;;33.83;21.50;;;9.40;77.00;;;;;;5095607;28;20423;-72
2021/03/24 08:02:33;;;;;;;34.00;22.53;;;9.50;76.20;;;;;;5096232;28;20843;-72
2021/03/24 08:05:26;;;;;;;32.60;23.00;;;9.60;76.00;;;;;;5095628;28;20478;-72
2021/03/24 08:08:00;;;;;;;29.93;21.67;;;9.70;75.80;;;;;;5095217;28;20495;-72
2021/03/24 08:10:34;;;;;;;36.13;23.00;;;9.80;75.40;;;;;;5095714;28;20424;-71
2021/03/24 08:13:46;;;;;;;33.47;23.20;;;9.90;75.30;;;;;;5095512;28;20468;-72
2021/03/24 08:16:31;;;;;;;29.67;21.33;;;10.00;73.60;;;;;;5095375;28;20942;-72
2021/03/24 08:19:15;;;;;;;37.53;24.10;;;10.30;73.30;;;;;;5095519;28;20424;-72
2021/03/24 08:21:58;;;;;;;34.73;23.80;;;10.50;72.40;;;;;;5095370;28;20463;-72
2021/03/24 08:24:36;;;;;;;31.67;20.57;;;10.70;71.90;;;;;;5095129;28;20773;-72
2021/03/24 08:27:08;;;;;;;36.77;24.13;;;10.70;71.20;;;;;;5095108;28;20791;-72
2021/03/24 08:29:41;;;;;;;37.23;23.30;;;10.90;70.60;;;;;;5095191;28;20467;-72
2021/03/24 08:32:35;;;;;;;33.63;22.53;;;11.10;70.10;;;;;;5095083;28;20466;-72
2021/03/24 08:35:37;;;;;;;36.27;22.83;;;11.30;70.10;;;;;;5095106;28;20440;-72
2021/03/24 08:38:39;;;;;;;33.03;22.60;;;11.60;68.40;;;;;;5069037;28;20435;-72
2021/03/24 08:41:26;;;;;;;37.43;23.00;;;11.70;67.00;;;;;;5095030;28;20428;-72
2021/03/24 08:44:01;;;;;;;34.93;23.30;;;11.80;66.00;;;;;;5094943;28;20436;-72
2021/03/24 08:46:31;;;;;;;33.40;24.37;;;11.80;66.00;;;;;;5094925;28;20427;-72
2021/03/24 08:49:01;;;;;;;34.93;24.37;;;11.90;66.40;;;;;;5094846;28;20484;-72
2021/03/24 08:51:52;;;;;;;36.20;25.70;;;12.10;66.00;;;;;;5094866;28;20435;-72
2021/03/24 08:54:48;;;;;;;33.23;23.77;;;12.10;65.70;;;;;;5095085;28;20458;-72
2021/03/24 08:57:26;;;;;;;33.60;23.00;;;12.30;65.50;;;;;;5094816;28;20436;-72
2021/03/24 08:59:55;;;;;;;31.67;22.23;;;12.50;65.20;;;;;;5094824;28;20419;-72
2021/03/24 09:02:35;;;;;;;38.83;26.93;;;12.70;64.50;;;;;;5094613;28;20467;-72
2021/03/24 09:05:11;;;;;;;43.40;25.30;;;12.80;64.20;;;;;;5094627;28;20436;-72
2021/03/24 09:08:01;;;;;;;33.67;24.53;;;12.90;63.30;;;;;;5094128;28;20451;-72
2021/03/24 09:10:51;;;;;;;36.73;25.20;;;13.00;62.10;;;;;;5094542;28;20455;-72
2021/03/24 09:13:27;;;;;;;42.70;26.60;;;13.30;61.50;;;;;;5093840;28;20960;-72
2021/03/24 09:16:28;;;;;;;34.70;23.93;;;13.40;61.10;;;;;;5095419;28;20493;-72
2021/03/24 09:19:06;;;;;;;40.27;25.33;;;13.60;61.30;;;;;;5094479;28;20435;-72
2021/03/24 09:21:40;;;;;;;43.03;26.47;;;13.80;59.50;;;;;;5093980;28;20984;-72
2021/03/24 09:24:40;;;;;;;35.53;23.90;;;13.90;58.80;;;;;;5094006;28;20936;-73
2021/03/24 09:27:41;;;;;;;40.17;26.67;;;14.00;58.60;;;;;;5093982;28;20416;-73
2021/03/24 09:30:32;;;;;;;41.90;26.57;;;14.10;59.00;;;;;;5094225;28;20473;-71
2021/03/24 09:33:14;;;;;;;36.10;26.80;;;14.30;59.10;;;;;;5094071;28;20460;-71
2021/03/24 09:35:46;;;;;;;35.57;23.80;;;14.40;58.50;;;;;;5094060;28;20439;-72
2021/03/24 09:38:19;;;;;;;33.70;24.20;;;14.40;58.20;;;;;;5094046;28;20420;-72
2021/03/24 09:40:47;;;;;;;35.73;25.10;;;14.50;58.30;;;;;;5094206;28;20432;-73
2021/03/24 09:43:21;;;;;;;38.00;26.63;;;14.50;57.50;;;;;;5093794;28;20996;-72
2021/03/24 09:45:58;;;;;;;36.47;24.63;;;14.70;57.70;;;;;;5094021;28;20423;-73
2021/03/24 09:48:24;;;;;;;35.83;24.47;;;14.90;58.00;;;;;;5093802;28;20466;-73
2021/03/24 09:51:04;;;;;;;38.87;23.00;;;15.10;56.90;;;;;;5094977;28;20474;-72
2021/03/24 09:53:37;;;;;;;40.13;26.07;;;15.30;56.50;;;;;;5093708;28;20470;-72
2021/03/24 09:56:06;;;;;;;34.70;24.30;;;15.60;56.20;;;;;;5093760;28;20432;-73
2021/03/24 09:59:02;;;;;;;38.30;25.90;;;15.90;56.40;;;;;;5093697;28;20580;-73
2021/03/24 10:01:46;;;;;;;39.10;24.60;;;16.20;54.50;;;;;;5093647;28;20451;-73
2021/03/24 10:04:22;;;;;;;36.23;24.37;;;16.50;54.60;;;;;;5093693;28;20436;-73
2021/03/24 10:07:01;;;;;;;34.87;24.97;;;16.60;53.00;;;;;;5093334;28;20451;-73
2021/03/24 10:09:34;;;;;;;35.77;25.37;;;16.40;53.00;;;;;;5093171;28;20758;-73
2021/03/24 10:12:10;;;;;;;38.13;24.33;;;16.40;53.90;;;;;;5093190;28;20511;-72
2021/03/24 10:14:46;;;;;;;33.53;23.43;;;16.40;53.60;;;;;;5093517;28;20436;-72
2021/03/24 10:17:18;;;;;;;30.00;22.90;;;16.60;53.00;;;;;;5093206;28;20901;-72
2021/03/24 10:19:50;;;;;;;35.93;23.83;;;17.00;52.50;;;;;;5093493;28;20420;-73
2021/03/24 10:22:21;;;;;;;34.07;22.77;;;17.50;52.10;;;;;;5093341;28;20474;-73
2021/03/24 10:24:52;;;;;;;33.03;24.50;;;17.80;50.40;;;;;;5097216;28;20428;-73
2021/03/24 10:27:20;;;;;;;43.77;25.60;;;18.00;49.50;;;;;;5097440;28;20796;-73
2021/03/24 10:29:53;;;;;;;33.10;24.37;;;18.20;49.10;;;;;;5097545;28;20487;-73
2021/03/24 10:32:24;;;;;;;31.00;23.73;;;18.40;48.10;;;;;;5097552;28;20471;-73
2021/03/24 10:34:57;;;;;;;34.10;24.83;;;18.60;47.90;;;;;;5097426;28;20450;-73
2021/03/24 10:37:30;;;;;;;34.37;24.30;;;18.90;47.30;;;;;;5098211;28;20436;-73
2021/03/24 10:40:01;;;;;;;40.90;25.57;;;19.50;46.60;;;;;;5097524;28;20424;-73
2021/03/24 10:42:33;;;;;;;32.93;25.07;;;20.00;45.30;;;;;;5097168;28;20460;-73
2021/03/24 10:45:05;;;;;;;33.57;24.60;;;20.30;44.30;;;;;;5097365;28;20504;-73
2021/03/24 10:47:38;;;;;;;29.37;23.20;;;20.50;43.10;;;;;;5097250;28;20542;-73
2021/03/24 10:50:20;;;;;;;27.37;21.47;;;21.00;41.70;;;;;;5096885;28;20475;-73
2021/03/24 10:53:04;;;;;;;32.50;23.10;;;21.50;40.20;;;;;;5097176;28;20466;-73
2021/03/24 10:55:32;;;;;;;29.90;21.20;;;21.60;37.90;;;;;;5096992;28;20436;-73
2021/03/24 10:58:08;;;;;;;33.57;24.67;;;21.80;39.00;;;;;;5097133;28;20902;-73
2021/03/24 11:00:42;;;;;;;34.97;22.97;;;21.90;38.00;;;;;;5096933;28;20431;-71
2021/03/24 11:03:18;;;;;;;27.50;21.20;;;22.40;37.40;;;;;;5097103;28;20455;-72
2021/03/24 11:05:48;;;;;;;30.10;23.43;;;23.10;36.20;;;;;;5096663;28;20427;-73
2021/03/24 11:08:36;;;;;;;32.40;23.03;;;23.30;35.00;;;;;;5096600;28;20472;-73
2021/03/24 11:11:11;;;;;;;32.30;23.90;;;22.90;35.20;;;;;;5096647;28;20436;-73
2021/03/24 11:13:40;;;;;;;28.10;23.73;;;23.40;34.50;;;;;;5096559;28;20438;-73
2021/03/24 11:16:12;;;;;;;30.57;23.87;;;23.30;33.10;;;;;;5096557;28;20428;-73
2021/03/24 11:18:44;;;;;;;30.17;23.77;;;22.80;33.80;;;;;;5096324;28;20452;-72
2021/03/24 11:21:39;;;;;;;36.03;23.73;;;22.70;35.90;;;;;;5096467;28;20439;-73
2021/03/24 11:24:22;;;;;;;31.43;25.57;;;23.10;35.90;;;;;;5082824;28;20512;-72
2021/03/24 11:27:20;;;;;;;26.80;21.50;;;23.10;34.70;;;;;;5096608;28;20430;-73
2021/03/24 11:30:11;;;;;;;27.93;22.67;;;23.10;35.30;;;;;;5096427;28;20520;-71
2021/03/24 11:32:44;;;;;;;26.87;22.03;;;23.60;33.70;;;;;;5092525;28;20475;-72
2021/03/24 11:35:26;;;;;;;28.40;22.33;;;24.00;32.70;;;;;;5095649;28;20424;-73
2021/03/24 11:38:01;;;;;;;29.10;23.00;;;24.20;33.10;;;;;;5096994;28;20431;-72
2021/03/24 11:40:33;;;;;;;30.93;23.90;;;24.80;32.30;;;;;;5097089;28;20444;-74
2021/03/24 11:43:02;;;;;;;28.43;22.50;;;25.00;30.40;;;;;;5095946;28;20934;-72
2021/03/24 11:45:31;;;;;;;28.87;22.57;;;25.00;31.80;;;;;;5095862;28;20816;-72
2021/03/24 11:48:16;;;;;;;26.80;22.70;;;24.90;30.90;;;;;;5095484;28;20938;-72
2021/03/24 11:50:51;;;;;;;27.80;22.70;;;24.30;31.60;;;;;;5096318;28;20478;-72
2021/03/24 11:53:24;;;;;;;28.47;24.03;;;24.20;32.30;;;;;;5096210;28;20467;-72
2021/03/24 11:55:55;;;;;;;29.97;23.67;;;24.20;32.00;;;;;;5095978;28;20432;-71
2021/03/24 11:58:46;;;;;;;28.83;22.97;;;24.20;32.60;;;;;;5095961;28;20485;-71
2021/03/24 12:01:35;;;;;;;29.57;22.20;;;23.90;31.80;;;;;;5095589;28;20467;-71
2021/03/24 12:04:19;;;;;;;29.10;22.60;;;24.40;32.60;;;;;;5095930;28;20489;-71
2021/03/24 12:06:57;;;;;;;26.53;21.67;;;24.70;31.60;;;;;;5095151;28;20508;-71
2021/03/24 12:09:26;;;;;;;29.90;22.87;;;25.40;30.50;;;;;;5095494;28;20467;-73
2021/03/24 12:12:04;;;;;;;30.93;23.23;;;26.00;29.20;;;;;;5095369;28;20471;-71
2021/03/24 12:14:31;;;;;;;27.40;22.00;;;26.60;31.20;;;;;;5095445;28;20428;-71
2021/03/24 12:17:00;;;;;;;25.30;21.40;;;27.20;29.20;;;;;;5095337;28;20817;-72
2021/03/24 12:19:32;;;;;;;29.87;22.03;;;26.70;26.90;;;;;;5095098;28;20497;-72
2021/03/24 12:22:00;;;;;;;26.17;20.97;;;26.00;28.90;;;;;;5095131;28;20862;-72
2021/03/24 12:24:30;;;;;;;26.03;20.17;;;25.80;28.70;;;;;;5095269;28;20424;-71
2021/03/24 12:27:08;;;;;;;25.70;21.40;;;25.70;29.20;;;;;;5095177;28;20435;-72
2021/03/24 12:29:35;;;;;;;23.60;20.70;;;26.10;29.80;;;;;;5095104;28;20463;-72
2021/03/24 12:32:06;;;;;;;23.50;19.37;;;26.80;28.90;;;;;;5094974;28;20982;-72
2021/03/24 12:34:42;;;;;;;23.87;18.77;;;27.60;27.90;;;;;;5095220;28;20424;-72
2021/03/24 12:37:23;;;;;;;26.57;18.60;;;28.50;27.00;;;;;;5095142;28;20427;-72
2021/03/24 12:39:51;;;;;;;25.93;21.17;;;29.20;25.50;;;;;;5094535;28;20902;-72
2021/03/24 12:42:23;;;;;;;20.23;18.23;;;30.00;24.50;;;;;;5094854;28;20467;-72
2021/03/24 12:44:50;;;;;;;24.20;20.67;;;30.20;23.90;;;;;;5094945;28;20454;-74
2021/03/24 12:47:34;;;;;;;24.03;19.83;;;30.60;23.60;;;;;;5093873;28;20434;-73
2021/03/24 12:50:22;;;;;;;21.17;18.90;;;30.30;23.70;;;;;;5094833;28;20520;-73
2021/03/24 12:52:55;;;;;;;19.87;17.60;;;30.70;23.60;;;;;;5084648;28;20479;-73
2021/03/24 12:55:21;;;;;;;22.23;18.87;;;30.30;23.30;;;;;;5094389;28;20439;-73
2021/03/24 12:57:54;;;;;;;20.90;18.70;;;30.60;23.20;;;;;;5094553;28;20439;-74
2021/03/24 13:00:38;;;;;;;24.00;19.30;;;30.90;23.10;;;;;;5094669;28;20416;-73
2021/03/24 13:03:44;;;;;;;25.47;20.97;;;31.20;22.20;;;;;;5094539;28;20459;-73
2021/03/24 13:06:25;;;;;;;26.13;20.70;;;30.70;22.40;;;;;;5094288;28;20451;-74
2021/03/24 13:09:01;;;;;;;23.17;20.67;;;29.50;24.50;;;;;;5094442;28;20522;-73
2021/03/24 13:11:37;;;;;;;26.60;21.50;;;28.70;24.40;;;;;;5094021;28;20892;-73
2021/03/24 13:14:33;;;;;;;26.33;21.10;;;27.30;26.10;;;;;;5094408;28;20443;-74
2021/03/24 13:17:05;;;;;;;27.10;20.87;;;26.90;26.50;;;;;;5094368;28;20455;-73